sensor_id;sensor_type;location;lat;lon;timestamp;P1;durP1;ratioP1;P2;durP2;ratioP2
74624;SDS011;63131;52.298;8.056;2023-04-28T00:00:08;7.28;;;2.83;;
74624;SDS011;63131;52.298;8.056;2023-04-28T00:02:33;8.63;;;3.17;;
74624;SDS011;63131;52.298;8.056;2023-04-28T00:04:59;8.07;;;3.17;;
74624;SDS011;63131;52.298;8.056;2023-04-28T00:07:24;6.40;;;2.55;;
74624;SDS011;63131;52.298;8.056;2023-04-28T00:09:50;8.13;;;3.40;;
74624;SDS011;63131;52.298;8.056;2023-04-28T00:12:15;9.20;;;3.40;;
74624;SDS011;63131;52.298;8.056;2023-04-28T00:14:41;7.35;;;3.05;;
74624;SDS011;63131;52.298;8.056;2023-04-28T00:17:06;9.73;;;3.50;;
74624;SDS011;63131;52.298;8.056;2023-04-28T00:19:33;7.93;;;3.33;;
74624;SDS011;63131;52.298;8.056;2023-04-28T00:21:58;7.38;;;3.10;;
74624;SDS011;63131;52.298;8.056;2023-04-28T00:24:23;7.10;;;2.85;;
74624;SDS011;63131;52.298;8.056;2023-04-28T00:26:49;8.70;;;2.80;;
74624;SDS011;63131;52.298;8.056;2023-04-28T00:29:15;7.00;;;2.92;;
74624;SDS011;63131;52.298;8.056;2023-04-28T00:31:40;8.27;;;3.67;;
74624;SDS011;63131;52.298;8.056;2023-04-28T00:34:05;6.80;;;2.97;;
74624;SDS011;63131;52.298;8.056;2023-04-28T00:36:31;7.55;;;3.00;;
74624;SDS011;63131;52.298;8.056;2023-04-28T00:38:57;6.95;;;2.65;;
74624;SDS011;63131;52.298;8.056;2023-04-28T00:41:23;7.18;;;2.90;;
74624;SDS011;63131;52.298;8.056;2023-04-28T00:43:48;6.80;;;3.22;;
74624;SDS011;63131;52.298;8.056;2023-04-28T00:46:24;9.27;;;3.45;;
74624;SDS011;63131;52.298;8.056;2023-04-28T00:48:52;7.80;;;2.97;;
74624;SDS011;63131;52.298;8.056;2023-04-28T00:51:17;8.88;;;3.92;;
74624;SDS011;63131;52.298;8.056;2023-04-28T00:53:43;7.18;;;2.75;;
74624;SDS011;63131;52.298;8.056;2023-04-28T00:56:08;7.13;;;2.75;;
74624;SDS011;63131;52.298;8.056;2023-04-28T00:58:34;9.45;;;2.70;;
74624;SDS011;63131;52.298;8.056;2023-04-28T01:01:06;8.85;;;3.75;;
74624;SDS011;63131;52.298;8.056;2023-04-28T01:03:33;8.00;;;2.58;;
74624;SDS011;63131;52.298;8.056;2023-04-28T01:05:59;10.30;;;2.75;;
74624;SDS011;63131;52.298;8.056;2023-04-28T01:08:29;8.93;;;3.25;;
74624;SDS011;63131;52.298;8.056;2023-04-28T01:10:54;8.23;;;3.22;;
74624;SDS011;63131;52.298;8.056;2023-04-28T01:13:20;8.13;;;2.65;;
74624;SDS011;63131;52.298;8.056;2023-04-28T01:15:45;8.13;;;2.75;;
74624;SDS011;63131;52.298;8.056;2023-04-28T01:18:11;7.43;;;2.53;;
74624;SDS011;63131;52.298;8.056;2023-04-28T01:20:37;7.18;;;2.85;;
74624;SDS011;63131;52.298;8.056;2023-04-28T01:23:02;7.90;;;2.88;;
74624;SDS011;63131;52.298;8.056;2023-04-28T01:25:28;7.38;;;2.40;;
74624;SDS011;63131;52.298;8.056;2023-04-28T01:27:53;8.02;;;3.28;;
74624;SDS011;63131;52.298;8.056;2023-04-28T01:30:18;7.40;;;2.50;;
74624;SDS011;63131;52.298;8.056;2023-04-28T01:32:43;8.65;;;3.15;;
74624;SDS011;63131;52.298;8.056;2023-04-28T01:35:09;7.35;;;2.92;;
74624;SDS011;63131;52.298;8.056;2023-04-28T01:37:34;7.30;;;2.92;;
74624;SDS011;63131;52.298;8.056;2023-04-28T01:40:00;10.27;;;3.67;;
74624;SDS011;63131;52.298;8.056;2023-04-28T01:42:25;8.45;;;3.25;;
74624;SDS011;63131;52.298;8.056;2023-04-28T01:44:51;7.60;;;2.97;;
74624;SDS011;63131;52.298;8.056;2023-04-28T01:47:16;7.60;;;2.67;;
74624;SDS011;63131;52.298;8.056;2023-04-28T01:49:41;8.18;;;2.70;;
74624;SDS011;63131;52.298;8.056;2023-04-28T01:52:07;7.15;;;2.60;;
74624;SDS011;63131;52.298;8.056;2023-04-28T01:54:32;8.48;;;3.28;;
74624;SDS011;63131;52.298;8.056;2023-04-28T01:56:57;6.47;;;2.28;;
74624;SDS011;63131;52.298;8.056;2023-04-28T01:59:23;7.00;;;2.60;;
74624;SDS011;63131;52.298;8.056;2023-04-28T02:01:48;7.88;;;2.90;;
74624;SDS011;63131;52.298;8.056;2023-04-28T02:04:13;9.00;;;2.80;;
74624;SDS011;63131;52.298;8.056;2023-04-28T02:06:39;7.07;;;2.92;;
74624;SDS011;63131;52.298;8.056;2023-04-28T02:09:04;9.25;;;3.05;;
74624;SDS011;63131;52.298;8.056;2023-04-28T02:11:29;7.28;;;3.17;;
74624;SDS011;63131;52.298;8.056;2023-04-28T02:13:55;7.22;;;2.90;;
74624;SDS011;63131;52.298;8.056;2023-04-28T02:16:20;7.68;;;3.20;;
74624;SDS011;63131;52.298;8.056;2023-04-28T02:18:45;8.15;;;2.90;;
74624;SDS011;63131;52.298;8.056;2023-04-28T02:21:11;11.80;;;2.97;;
74624;SDS011;63131;52.298;8.056;2023-04-28T02:23:36;9.00;;;3.17;;
74624;SDS011;63131;52.298;8.056;2023-04-28T02:26:02;8.50;;;3.25;;
74624;SDS011;63131;52.298;8.056;2023-04-28T02:28:28;8.10;;;3.05;;
74624;SDS011;63131;52.298;8.056;2023-04-28T02:31:02;8.50;;;2.97;;
74624;SDS011;63131;52.298;8.056;2023-04-28T02:33:31;7.35;;;3.25;;
74624;SDS011;63131;52.298;8.056;2023-04-28T02:36:00;8.25;;;3.10;;
74624;SDS011;63131;52.298;8.056;2023-04-28T02:38:26;12.93;;;4.00;;
74624;SDS011;63131;52.298;8.056;2023-04-28T02:41:04;8.27;;;3.08;;
74624;SDS011;63131;52.298;8.056;2023-04-28T02:43:30;9.32;;;3.08;;
74624;SDS011;63131;52.298;8.056;2023-04-28T02:45:56;8.63;;;3.20;;
74624;SDS011;63131;52.298;8.056;2023-04-28T02:48:22;8.82;;;3.10;;
74624;SDS011;63131;52.298;8.056;2023-04-28T02:50:48;9.23;;;3.10;;
74624;SDS011;63131;52.298;8.056;2023-04-28T02:53:13;8.23;;;2.90;;
74624;SDS011;63131;52.298;8.056;2023-04-28T02:55:38;8.68;;;3.33;;
74624;SDS011;63131;52.298;8.056;2023-04-28T02:58:04;8.65;;;3.28;;
74624;SDS011;63131;52.298;8.056;2023-04-28T03:00:29;8.75;;;2.90;;
74624;SDS011;63131;52.298;8.056;2023-04-28T03:02:54;6.60;;;2.50;;
74624;SDS011;63131;52.298;8.056;2023-04-28T03:05:20;8.52;;;4.13;;
74624;SDS011;63131;52.298;8.056;2023-04-28T03:07:45;8.30;;;2.97;;
74624;SDS011;63131;52.298;8.056;2023-04-28T03:10:11;8.38;;;3.30;;
74624;SDS011;63131;52.298;8.056;2023-04-28T03:12:36;7.63;;;2.63;;
74624;SDS011;63131;52.298;8.056;2023-04-28T03:15:01;7.85;;;3.08;;
74624;SDS011;63131;52.298;8.056;2023-04-28T03:20:04;9.18;;;2.90;;
74624;SDS011;63131;52.298;8.056;2023-04-28T03:22:30;8.43;;;2.92;;
74624;SDS011;63131;52.298;8.056;2023-04-28T03:24:55;8.85;;;2.80;;
74624;SDS011;63131;52.298;8.056;2023-04-28T03:27:21;7.45;;;2.58;;
74624;SDS011;63131;52.298;8.056;2023-04-28T03:29:46;9.52;;;3.47;;
74624;SDS011;63131;52.298;8.056;2023-04-28T03:32:11;8.80;;;3.13;;
74624;SDS011;63131;52.298;8.056;2023-04-28T03:34:37;8.85;;;2.63;;
74624;SDS011;63131;52.298;8.056;2023-04-28T03:37:02;9.38;;;3.30;;
74624;SDS011;63131;52.298;8.056;2023-04-28T03:39:27;7.75;;;3.15;;
74624;SDS011;63131;52.298;8.056;2023-04-28T03:41:53;7.50;;;2.88;;
74624;SDS011;63131;52.298;8.056;2023-04-28T03:44:18;7.40;;;3.22;;
74624;SDS011;63131;52.298;8.056;2023-04-28T03:46:44;7.43;;;3.10;;
74624;SDS011;63131;52.298;8.056;2023-04-28T03:49:09;8.35;;;3.72;;
74624;SDS011;63131;52.298;8.056;2023-04-28T03:51:34;11.30;;;4.03;;
74624;SDS011;63131;52.298;8.056;2023-04-28T03:54:00;6.80;;;3.00;;
74624;SDS011;63131;52.298;8.056;2023-04-28T03:56:25;7.78;;;3.35;;
74624;SDS011;63131;52.298;8.056;2023-04-28T03:58:50;8.90;;;3.58;;
74624;SDS011;63131;52.298;8.056;2023-04-28T04:01:16;8.45;;;3.58;;
74624;SDS011;63131;52.298;8.056;2023-04-28T04:03:41;10.70;;;3.67;;
74624;SDS011;63131;52.298;8.056;2023-04-28T04:06:06;7.97;;;3.38;;
74624;SDS011;63131;52.298;8.056;2023-04-28T04:08:32;12.18;;;3.22;;
74624;SDS011;63131;52.298;8.056;2023-04-28T04:10:57;9.23;;;3.35;;
74624;SDS011;63131;52.298;8.056;2023-04-28T04:13:22;8.55;;;3.85;;
74624;SDS011;63131;52.298;8.056;2023-04-28T04:15:48;9.77;;;3.78;;
74624;SDS011;63131;52.298;8.056;2023-04-28T04:18:14;13.02;;;4.68;;
74624;SDS011;63131;52.298;8.056;2023-04-28T04:20:40;10.82;;;3.85;;
74624;SDS011;63131;52.298;8.056;2023-04-28T04:23:05;9.70;;;3.72;;
74624;SDS011;63131;52.298;8.056;2023-04-28T04:25:30;8.93;;;3.65;;
74624;SDS011;63131;52.298;8.056;2023-04-28T04:27:56;9.38;;;3.63;;
74624;SDS011;63131;52.298;8.056;2023-04-28T04:30:22;8.25;;;3.42;;
74624;SDS011;63131;52.298;8.056;2023-04-28T04:32:47;9.05;;;3.80;;
74624;SDS011;63131;52.298;8.056;2023-04-28T04:35:13;8.73;;;4.22;;
74624;SDS011;63131;52.298;8.056;2023-04-28T04:37:38;8.52;;;3.92;;
74624;SDS011;63131;52.298;8.056;2023-04-28T04:40:04;8.38;;;3.83;;
74624;SDS011;63131;52.298;8.056;2023-04-28T04:42:31;9.10;;;4.10;;
74624;SDS011;63131;52.298;8.056;2023-04-28T04:44:57;11.73;;;4.40;;
74624;SDS011;63131;52.298;8.056;2023-04-28T04:47:22;9.00;;;4.22;;
74624;SDS011;63131;52.298;8.056;2023-04-28T04:49:48;11.02;;;4.38;;
74624;SDS011;63131;52.298;8.056;2023-04-28T04:52:14;7.97;;;4.05;;
74624;SDS011;63131;52.298;8.056;2023-04-28T04:54:39;9.73;;;4.32;;
74624;SDS011;63131;52.298;8.056;2023-04-28T04:57:05;9.82;;;4.25;;
74624;SDS011;63131;52.298;8.056;2023-04-28T04:59:31;10.98;;;4.20;;
74624;SDS011;63131;52.298;8.056;2023-04-28T05:01:56;11.65;;;4.25;;
74624;SDS011;63131;52.298;8.056;2023-04-28T05:04:22;10.00;;;4.38;;
74624;SDS011;63131;52.298;8.056;2023-04-28T05:06:47;10.43;;;4.15;;
74624;SDS011;63131;52.298;8.056;2023-04-28T05:09:12;9.40;;;3.92;;
74624;SDS011;63131;52.298;8.056;2023-04-28T05:11:38;10.73;;;4.35;;
74624;SDS011;63131;52.298;8.056;2023-04-28T05:14:03;11.57;;;4.35;;
74624;SDS011;63131;52.298;8.056;2023-04-28T05:16:28;7.72;;;3.63;;
74624;SDS011;63131;52.298;8.056;2023-04-28T05:18:54;9.05;;;4.28;;
74624;SDS011;63131;52.298;8.056;2023-04-28T05:21:19;10.07;;;4.10;;
74624;SDS011;63131;52.298;8.056;2023-04-28T05:23:44;11.73;;;5.00;;
74624;SDS011;63131;52.298;8.056;2023-04-28T05:26:10;11.20;;;4.18;;
74624;SDS011;63131;52.298;8.056;2023-04-28T05:28:35;10.20;;;4.07;;
74624;SDS011;63131;52.298;8.056;2023-04-28T05:31:00;8.80;;;4.22;;
74624;SDS011;63131;52.298;8.056;2023-04-28T05:33:26;10.48;;;4.03;;
74624;SDS011;63131;52.298;8.056;2023-04-28T05:35:51;10.25;;;4.00;;
74624;SDS011;63131;52.298;8.056;2023-04-28T05:38:17;10.60;;;4.25;;
74624;SDS011;63131;52.298;8.056;2023-04-28T05:40:42;9.60;;;4.18;;
74624;SDS011;63131;52.298;8.056;2023-04-28T05:43:08;11.30;;;4.72;;
74624;SDS011;63131;52.298;8.056;2023-04-28T05:45:33;8.13;;;4.30;;
74624;SDS011;63131;52.298;8.056;2023-04-28T05:47:59;9.90;;;4.30;;
74624;SDS011;63131;52.298;8.056;2023-04-28T05:50:24;11.85;;;4.07;;
74624;SDS011;63131;52.298;8.056;2023-04-28T05:52:50;9.55;;;4.40;;
74624;SDS011;63131;52.298;8.056;2023-04-28T05:55:15;8.35;;;3.95;;
74624;SDS011;63131;52.298;8.056;2023-04-28T05:57:41;10.32;;;6.18;;
74624;SDS011;63131;52.298;8.056;2023-04-28T06:00:06;12.18;;;4.65;;
74624;SDS011;63131;52.298;8.056;2023-04-28T06:02:32;12.00;;;4.43;;
74624;SDS011;63131;52.298;8.056;2023-04-28T06:04:57;11.05;;;4.47;;
74624;SDS011;63131;52.298;8.056;2023-04-28T06:07:23;9.68;;;4.57;;
74624;SDS011;63131;52.298;8.056;2023-04-28T06:09:48;10.43;;;4.25;;
74624;SDS011;63131;52.298;8.056;2023-04-28T06:12:13;9.00;;;4.65;;
74624;SDS011;63131;52.298;8.056;2023-04-28T06:14:39;10.50;;;4.57;;
74624;SDS011;63131;52.298;8.056;2023-04-28T06:17:04;11.15;;;5.07;;
74624;SDS011;63131;52.298;8.056;2023-04-28T06:19:30;11.43;;;5.40;;
74624;SDS011;63131;52.298;8.056;2023-04-28T06:21:55;10.43;;;5.03;;
74624;SDS011;63131;52.298;8.056;2023-04-28T06:24:20;13.85;;;5.28;;
74624;SDS011;63131;52.298;8.056;2023-04-28T06:26:46;12.48;;;5.38;;
74624;SDS011;63131;52.298;8.056;2023-04-28T06:29:11;9.02;;;4.57;;
74624;SDS011;63131;52.298;8.056;2023-04-28T06:31:37;11.30;;;5.68;;
74624;SDS011;63131;52.298;8.056;2023-04-28T06:34:02;14.23;;;5.18;;
74624;SDS011;63131;52.298;8.056;2023-04-28T06:36:28;10.52;;;5.25;;
74624;SDS011;63131;52.298;8.056;2023-04-28T06:38:53;10.55;;;4.30;;
74624;SDS011;63131;52.298;8.056;2023-04-28T06:41:19;10.02;;;5.00;;
74624;SDS011;63131;52.298;8.056;2023-04-28T06:43:44;11.32;;;5.07;;
74624;SDS011;63131;52.298;8.056;2023-04-28T06:46:09;13.43;;;5.05;;
74624;SDS011;63131;52.298;8.056;2023-04-28T06:48:35;12.60;;;5.55;;
74624;SDS011;63131;52.298;8.056;2023-04-28T06:51:00;11.43;;;5.43;;
74624;SDS011;63131;52.298;8.056;2023-04-28T06:53:26;12.27;;;5.80;;
74624;SDS011;63131;52.298;8.056;2023-04-28T06:55:51;11.35;;;5.50;;
74624;SDS011;63131;52.298;8.056;2023-04-28T06:58:17;11.07;;;5.75;;
74624;SDS011;63131;52.298;8.056;2023-04-28T07:00:42;10.70;;;5.55;;
74624;SDS011;63131;52.298;8.056;2023-04-28T07:03:08;10.90;;;5.05;;
74624;SDS011;63131;52.298;8.056;2023-04-28T07:05:33;11.45;;;5.13;;
74624;SDS011;63131;52.298;8.056;2023-04-28T07:08:00;13.52;;;6.55;;
74624;SDS011;63131;52.298;8.056;2023-04-28T07:10:25;11.55;;;5.68;;
74624;SDS011;63131;52.298;8.056;2023-04-28T07:12:50;12.65;;;5.57;;
74624;SDS011;63131;52.298;8.056;2023-04-28T07:15:16;11.60;;;5.30;;
74624;SDS011;63131;52.298;8.056;2023-04-28T07:17:41;15.38;;;6.18;;
74624;SDS011;63131;52.298;8.056;2023-04-28T07:20:07;12.23;;;5.85;;
74624;SDS011;63131;52.298;8.056;2023-04-28T07:22:33;13.05;;;5.60;;
74624;SDS011;63131;52.298;8.056;2023-04-28T07:24:58;10.88;;;5.50;;
74624;SDS011;63131;52.298;8.056;2023-04-28T07:27:23;11.82;;;5.65;;
74624;SDS011;63131;52.298;8.056;2023-04-28T07:29:49;11.90;;;6.03;;
74624;SDS011;63131;52.298;8.056;2023-04-28T07:32:14;11.55;;;5.28;;
74624;SDS011;63131;52.298;8.056;2023-04-28T07:34:40;11.85;;;5.13;;
74624;SDS011;63131;52.298;8.056;2023-04-28T07:37:05;13.02;;;5.53;;
74624;SDS011;63131;52.298;8.056;2023-04-28T07:39:31;13.85;;;5.90;;
74624;SDS011;63131;52.298;8.056;2023-04-28T07:41:57;14.32;;;5.60;;
74624;SDS011;63131;52.298;8.056;2023-04-28T07:44:23;13.50;;;5.82;;
74624;SDS011;63131;52.298;8.056;2023-04-28T07:46:49;11.55;;;5.72;;
74624;SDS011;63131;52.298;8.056;2023-04-28T07:49:16;11.77;;;5.82;;
74624;SDS011;63131;52.298;8.056;2023-04-28T07:51:41;11.15;;;5.60;;
74624;SDS011;63131;52.298;8.056;2023-04-28T07:54:07;10.98;;;5.93;;
74624;SDS011;63131;52.298;8.056;2023-04-28T07:56:32;10.55;;;5.80;;
74624;SDS011;63131;52.298;8.056;2023-04-28T07:58:58;10.63;;;5.68;;
74624;SDS011;63131;52.298;8.056;2023-04-28T08:01:23;12.70;;;5.70;;
74624;SDS011;63131;52.298;8.056;2023-04-28T08:03:49;18.80;;;6.45;;
74624;SDS011;63131;52.298;8.056;2023-04-28T08:06:14;11.88;;;5.47;;
74624;SDS011;63131;52.298;8.056;2023-04-28T08:08:40;13.07;;;6.65;;
74624;SDS011;63131;52.298;8.056;2023-04-28T08:11:06;10.18;;;5.05;;
74624;SDS011;63131;52.298;8.056;2023-04-28T08:13:32;11.02;;;5.40;;
74624;SDS011;63131;52.298;8.056;2023-04-28T08:15:57;12.32;;;5.45;;
74624;SDS011;63131;52.298;8.056;2023-04-28T08:18:24;14.23;;;6.15;;
74624;SDS011;63131;52.298;8.056;2023-04-28T08:20:51;12.32;;;6.50;;
74624;SDS011;63131;52.298;8.056;2023-04-28T08:23:16;13.60;;;5.47;;
74624;SDS011;63131;52.298;8.056;2023-04-28T08:25:41;11.55;;;5.72;;
74624;SDS011;63131;52.298;8.056;2023-04-28T08:28:07;14.40;;;6.40;;
74624;SDS011;63131;52.298;8.056;2023-04-28T08:30:33;14.43;;;6.50;;
74624;SDS011;63131;52.298;8.056;2023-04-28T08:32:58;11.60;;;6.05;;
74624;SDS011;63131;52.298;8.056;2023-04-28T08:35:24;11.77;;;6.25;;
74624;SDS011;63131;52.298;8.056;2023-04-28T08:37:51;12.50;;;5.82;;
74624;SDS011;63131;52.298;8.056;2023-04-28T08:40:16;13.35;;;6.72;;
74624;SDS011;63131;52.298;8.056;2023-04-28T08:42:42;11.48;;;5.72;;
74624;SDS011;63131;52.298;8.056;2023-04-28T08:45:11;13.55;;;6.50;;
74624;SDS011;63131;52.298;8.056;2023-04-28T08:47:38;11.43;;;6.28;;
74624;SDS011;63131;52.298;8.056;2023-04-28T08:50:05;11.55;;;6.05;;
74624;SDS011;63131;52.298;8.056;2023-04-28T08:52:32;13.48;;;5.97;;
74624;SDS011;63131;52.298;8.056;2023-04-28T08:54:58;12.77;;;6.75;;
74624;SDS011;63131;52.298;8.056;2023-04-28T08:57:25;13.63;;;7.10;;
74624;SDS011;63131;52.298;8.056;2023-04-28T08:59:54;12.40;;;7.20;;
74624;SDS011;63131;52.298;8.056;2023-04-28T09:02:19;14.02;;;6.90;;
74624;SDS011;63131;52.298;8.056;2023-04-28T09:04:48;13.70;;;6.78;;
74624;SDS011;63131;52.298;8.056;2023-04-28T09:07:13;13.35;;;7.57;;
74624;SDS011;63131;52.298;8.056;2023-04-28T09:09:39;11.90;;;6.45;;
74624;SDS011;63131;52.298;8.056;2023-04-28T09:14:31;13.33;;;6.97;;
74624;SDS011;63131;52.298;8.056;2023-04-28T09:16:57;12.52;;;7.10;;
74624;SDS011;63131;52.298;8.056;2023-04-28T09:19:23;11.32;;;5.88;;
74624;SDS011;63131;52.298;8.056;2023-04-28T09:21:55;11.55;;;6.68;;
74624;SDS011;63131;52.298;8.056;2023-04-28T09:24:34;15.93;;;7.28;;
74624;SDS011;63131;52.298;8.056;2023-04-28T09:27:02;11.57;;;6.63;;
74624;SDS011;63131;52.298;8.056;2023-04-28T09:29:29;11.80;;;6.30;;
74624;SDS011;63131;52.298;8.056;2023-04-28T09:34:47;12.98;;;6.57;;
74624;SDS011;63131;52.298;8.056;2023-04-28T09:37:14;13.43;;;6.47;;
74624;SDS011;63131;52.298;8.056;2023-04-28T09:39:40;13.50;;;8.02;;
74624;SDS011;63131;52.298;8.056;2023-04-28T09:42:05;12.48;;;6.80;;
74624;SDS011;63131;52.298;8.056;2023-04-28T09:44:31;14.30;;;7.35;;
74624;SDS011;63131;52.298;8.056;2023-04-28T09:46:56;12.38;;;6.93;;
74624;SDS011;63131;52.298;8.056;2023-04-28T09:49:22;14.13;;;7.60;;
74624;SDS011;63131;52.298;8.056;2023-04-28T09:51:47;12.80;;;6.65;;
74624;SDS011;63131;52.298;8.056;2023-04-28T09:54:12;14.23;;;6.78;;
74624;SDS011;63131;52.298;8.056;2023-04-28T09:56:38;15.18;;;6.85;;
74624;SDS011;63131;52.298;8.056;2023-04-28T09:59:05;13.63;;;6.35;;
74624;SDS011;63131;52.298;8.056;2023-04-28T10:01:37;12.95;;;6.78;;
74624;SDS011;63131;52.298;8.056;2023-04-28T10:04:04;12.52;;;7.10;;
74624;SDS011;63131;52.298;8.056;2023-04-28T10:06:32;14.77;;;7.28;;
74624;SDS011;63131;52.298;8.056;2023-04-28T10:08:59;15.20;;;8.23;;
74624;SDS011;63131;52.298;8.056;2023-04-28T10:11:25;12.23;;;7.20;;
74624;SDS011;63131;52.298;8.056;2023-04-28T10:13:52;17.45;;;7.30;;
74624;SDS011;63131;52.298;8.056;2023-04-28T10:16:18;14.23;;;7.65;;
74624;SDS011;63131;52.298;8.056;2023-04-28T10:18:44;12.70;;;6.75;;
74624;SDS011;63131;52.298;8.056;2023-04-28T10:21:09;13.77;;;6.75;;
74624;SDS011;63131;52.298;8.056;2023-04-28T10:29:23;14.77;;;6.82;;
74624;SDS011;63131;52.298;8.056;2023-04-28T10:34:43;13.55;;;7.28;;
74624;SDS011;63131;52.298;8.056;2023-04-28T10:37:08;23.00;;;10.95;;
74624;SDS011;63131;52.298;8.056;2023-04-28T10:42:00;12.20;;;6.77;;
74624;SDS011;63131;52.298;8.056;2023-04-28T10:47:03;13.38;;;7.63;;
74624;SDS011;63131;52.298;8.056;2023-04-28T11:00:44;12.82;;;6.85;;
74624;SDS011;63131;52.298;8.056;2023-04-28T11:06:22;10.95;;;5.65;;
74624;SDS011;63131;52.298;8.056;2023-04-28T11:19:19;12.05;;;7.03;;
74624;SDS011;63131;52.298;8.056;2023-04-28T11:21:45;13.90;;;6.93;;
74624;SDS011;63131;52.298;8.056;2023-04-28T11:24:12;12.02;;;7.65;;
74624;SDS011;63131;52.298;8.056;2023-04-28T11:29:03;12.60;;;6.85;;
74624;SDS011;63131;52.298;8.056;2023-04-28T11:33:57;11.07;;;6.53;;
74624;SDS011;63131;52.298;8.056;2023-04-28T11:36:28;13.38;;;7.18;;
74624;SDS011;63131;52.298;8.056;2023-04-28T11:38:56;11.77;;;6.50;;
74624;SDS011;63131;52.298;8.056;2023-04-28T11:43:47;12.43;;;6.38;;
74624;SDS011;63131;52.298;8.056;2023-04-28T11:48:42;11.13;;;6.55;;
74624;SDS011;63131;52.298;8.056;2023-04-28T11:53:42;15.97;;;6.90;;
74624;SDS011;63131;52.298;8.056;2023-04-28T11:56:07;11.60;;;6.65;;
74624;SDS011;63131;52.298;8.056;2023-04-28T12:01:11;12.17;;;6.30;;
74624;SDS011;63131;52.298;8.056;2023-04-28T12:03:41;13.05;;;6.68;;
74624;SDS011;63131;52.298;8.056;2023-04-28T12:08:35;12.03;;;6.67;;
74624;SDS011;63131;52.298;8.056;2023-04-28T12:11:10;12.23;;;6.18;;
74624;SDS011;63131;52.298;8.056;2023-04-28T12:16:05;11.57;;;6.35;;
74624;SDS011;63131;52.298;8.056;2023-04-28T12:18:31;10.02;;;6.57;;
74624;SDS011;63131;52.298;8.056;2023-04-28T12:21:03;14.15;;;6.82;;
74624;SDS011;63131;52.298;8.056;2023-04-28T12:23:32;12.80;;;6.78;;
74624;SDS011;63131;52.298;8.056;2023-04-28T12:25:59;12.18;;;6.57;;
74624;SDS011;63131;52.298;8.056;2023-04-28T12:28:40;11.65;;;6.82;;
74624;SDS011;63131;52.298;8.056;2023-04-28T12:31:08;14.05;;;7.50;;
74624;SDS011;63131;52.298;8.056;2023-04-28T12:33:34;13.60;;;7.80;;
74624;SDS011;63131;52.298;8.056;2023-04-28T12:36:03;12.32;;;7.43;;
74624;SDS011;63131;52.298;8.056;2023-04-28T12:38:29;12.27;;;7.53;;
74624;SDS011;63131;52.298;8.056;2023-04-28T12:43:21;11.35;;;6.43;;
74624;SDS011;63131;52.298;8.056;2023-04-28T12:45:48;12.75;;;7.13;;
74624;SDS011;63131;52.298;8.056;2023-04-28T12:48:14;11.10;;;7.05;;
74624;SDS011;63131;52.298;8.056;2023-04-28T12:50:39;11.35;;;6.68;;
74624;SDS011;63131;52.298;8.056;2023-04-28T12:53:05;13.25;;;7.15;;
74624;SDS011;63131;52.298;8.056;2023-04-28T12:55:30;12.35;;;7.45;;
74624;SDS011;63131;52.298;8.056;2023-04-28T12:57:55;11.75;;;6.85;;
74624;SDS011;63131;52.298;8.056;2023-04-28T13:02:48;11.07;;;6.10;;
74624;SDS011;63131;52.298;8.056;2023-04-28T13:07:39;10.52;;;6.53;;
74624;SDS011;63131;52.298;8.056;2023-04-28T13:12:30;12.77;;;6.82;;
74624;SDS011;63131;52.298;8.056;2023-04-28T13:14:57;12.88;;;6.85;;
74624;SDS011;63131;52.298;8.056;2023-04-28T13:19:48;13.13;;;6.33;;
74624;SDS011;63131;52.298;8.056;2023-04-28T13:24:39;14.25;;;6.57;;
74624;SDS011;63131;52.298;8.056;2023-04-28T13:29:33;11.57;;;6.28;;
74624;SDS011;63131;52.298;8.056;2023-04-28T13:32:00;12.25;;;6.70;;
74624;SDS011;63131;52.298;8.056;2023-04-28T13:36:51;13.85;;;8.88;;
74624;SDS011;63131;52.298;8.056;2023-04-28T13:39:18;13.48;;;7.68;;
74624;SDS011;63131;52.298;8.056;2023-04-28T13:41:45;12.18;;;7.25;;
74624;SDS011;63131;52.298;8.056;2023-04-28T13:46:36;13.10;;;7.80;;
74624;SDS011;63131;52.298;8.056;2023-04-28T13:51:26;14.27;;;7.90;;
74624;SDS011;63131;52.298;8.056;2023-04-28T13:53:52;14.30;;;8.68;;
74624;SDS011;63131;52.298;8.056;2023-04-28T13:56:18;14.05;;;8.32;;
74624;SDS011;63131;52.298;8.056;2023-04-28T14:01:09;12.90;;;7.47;;
74624;SDS011;63131;52.298;8.056;2023-04-28T14:03:34;13.05;;;7.82;;
74624;SDS011;63131;52.298;8.056;2023-04-28T14:06:00;14.13;;;8.80;;
74624;SDS011;63131;52.298;8.056;2023-04-28T14:10:51;13.40;;;8.55;;
74624;SDS011;63131;52.298;8.056;2023-04-28T14:15:42;14.38;;;8.98;;
74624;SDS011;63131;52.298;8.056;2023-04-28T14:18:09;15.27;;;9.48;;
74624;SDS011;63131;52.298;8.056;2023-04-28T14:23:00;14.13;;;8.63;;
74624;SDS011;63131;52.298;8.056;2023-04-28T14:27:50;14.00;;;8.63;;
74624;SDS011;63131;52.298;8.056;2023-04-28T14:32:41;14.63;;;9.32;;
74624;SDS011;63131;52.298;8.056;2023-04-28T14:37:33;13.30;;;9.38;;
74624;SDS011;63131;52.298;8.056;2023-04-28T14:42:26;14.13;;;8.75;;
74624;SDS011;63131;52.298;8.056;2023-04-28T14:44:52;14.90;;;9.70;;
74624;SDS011;63131;52.298;8.056;2023-04-28T14:49:42;14.73;;;10.53;;
74624;SDS011;63131;52.298;8.056;2023-04-28T14:54:33;13.88;;;9.65;;
74624;SDS011;63131;52.298;8.056;2023-04-28T14:57:00;17.77;;;9.63;;
74624;SDS011;63131;52.298;8.056;2023-04-28T15:01:51;15.35;;;9.57;;
74624;SDS011;63131;52.298;8.056;2023-04-28T15:04:16;16.52;;;10.25;;
74624;SDS011;63131;52.298;8.056;2023-04-28T15:09:07;16.23;;;10.60;;
74624;SDS011;63131;52.298;8.056;2023-04-28T15:13:58;16.33;;;11.10;;
74624;SDS011;63131;52.298;8.056;2023-04-28T15:16:23;18.63;;;11.93;;
74624;SDS011;63131;52.298;8.056;2023-04-28T15:21:13;18.03;;;11.70;;
74624;SDS011;63131;52.298;8.056;2023-04-28T15:26:04;17.23;;;11.57;;
74624;SDS011;63131;52.298;8.056;2023-04-28T15:28:30;17.20;;;10.73;;
74624;SDS011;63131;52.298;8.056;2023-04-28T15:30:56;17.88;;;12.00;;
74624;SDS011;63131;52.298;8.056;2023-04-28T15:35:46;15.07;;;10.65;;
74624;SDS011;63131;52.298;8.056;2023-04-28T15:40:40;17.70;;;12.67;;
74624;SDS011;63131;52.298;8.056;2023-04-28T15:43:06;17.30;;;12.07;;
74624;SDS011;63131;52.298;8.056;2023-04-28T15:45:32;19.10;;;12.95;;
74624;SDS011;63131;52.298;8.056;2023-04-28T15:47:58;18.77;;;12.65;;
74624;SDS011;63131;52.298;8.056;2023-04-28T15:50:24;19.63;;;11.57;;
74624;SDS011;63131;52.298;8.056;2023-04-28T15:52:50;17.90;;;11.20;;
74624;SDS011;63131;52.298;8.056;2023-04-28T15:55:16;18.02;;;12.60;;
74624;SDS011;63131;52.298;8.056;2023-04-28T15:57:43;18.98;;;13.13;;
74624;SDS011;63131;52.298;8.056;2023-04-28T16:02:34;19.10;;;12.57;;
74624;SDS011;63131;52.298;8.056;2023-04-28T16:05:01;18.90;;;13.07;;
74624;SDS011;63131;52.298;8.056;2023-04-28T16:07:27;20.50;;;13.15;;
74624;SDS011;63131;52.298;8.056;2023-04-28T16:09:55;17.88;;;13.30;;
74624;SDS011;63131;52.298;8.056;2023-04-28T16:14:48;18.77;;;13.18;;
74624;SDS011;63131;52.298;8.056;2023-04-28T16:17:18;20.00;;;13.18;;
74624;SDS011;63131;52.298;8.056;2023-04-28T16:22:08;20.85;;;13.27;;
74624;SDS011;63131;52.298;8.056;2023-04-28T16:27:06;21.08;;;14.10;;
74624;SDS011;63131;52.298;8.056;2023-04-28T16:31:57;20.87;;;14.20;;
74624;SDS011;63131;52.298;8.056;2023-04-28T16:36:47;21.30;;;13.37;;
74624;SDS011;63131;52.298;8.056;2023-04-28T16:39:13;21.73;;;14.90;;
74624;SDS011;63131;52.298;8.056;2023-04-28T16:44:04;18.63;;;12.52;;
74624;SDS011;63131;52.298;8.056;2023-04-28T16:48:55;20.98;;;14.10;;
74624;SDS011;63131;52.298;8.056;2023-04-28T16:53:46;22.02;;;15.52;;
74624;SDS011;63131;52.298;8.056;2023-04-28T16:56:11;24.85;;;15.07;;
74624;SDS011;63131;52.298;8.056;2023-04-28T16:58:36;22.42;;;15.52;;
74624;SDS011;63131;52.298;8.056;2023-04-28T17:01:02;21.63;;;13.93;;
74624;SDS011;63131;52.298;8.056;2023-04-28T17:03:27;22.42;;;12.02;;